Time;durP1;ratioP1;P1;durP2;ratioP2;P2;SDS_P1;SDS_P2;PMS_P1;PMS_P2;Temp;Humidity;BMP_temperature;BMP_pressure;BME280_temperature;BME280_humidity;BME280_pressure;Samples;Min_cycle;Max_cycle;Signal;HPM_P1;HPM_P2
2022/09/30 00:00:00;;;;;;;3.47;3.08;;;;;;;;;;5072978;28;20033;-73
2022/09/30 00:02:26;;;;;;;3.78;2.90;;;;;;;;;;5071613;28;20060;-73
2022/09/30 00:04:52;;;;;;;4.97;3.05;;;9.50;99.90;;;;;;5072641;28;20071;-73
2022/09/30 00:07:18;;;;;;;4.88;2.80;;;9.30;99.90;;;;;;5071862;28;20101;-72
2022/09/30 00:09:43;;;;;;;7.32;3.50;;;;;;;;;;5071473;28;20047;-73
2022/09/30 00:12:10;;;;;;;2.63;2.42;;;;;;;;;;5054873;28;20043;-73
2022/09/30 00:14:36;;;;;;;3.85;3.00;;;;;;;;;;5071539;28;20040;-73
2022/09/30 00:17:02;;;;;;;3.67;2.85;;;;;;;;;;5055046;28;20040;-72
2022/09/30 00:19:27;;;;;;;4.30;3.15;;;9.20;99.90;;;;;;5071081;28;20037;-73
2022/09/30 00:21:53;;;;;;;3.13;2.78;;;;;;;;;;5071534;28;20040;-73
2022/09/30 00:24:19;;;;;;;3.63;3.13;;;9.10;99.90;;;;;;5071160;28;20145;-73
2022/09/30 00:26:45;;;;;;;4.00;3.10;;;9.20;99.90;;;;;;5071240;28;20511;-73
2022/09/30 00:29:11;;;;;;;6.63;3.22;;;;;;;;;;5072398;28;20106;-72
2022/09/30 00:31:37;;;;;;;3.92;3.28;;;9.00;99.90;;;;;;5071120;28;20524;-72
2022/09/30 00:34:06;;;;;;;2.92;2.63;;;9.10;99.90;;;;;;5070844;28;20102;-72
2022/09/30 00:36:35;;;;;;;3.17;2.88;;;9.00;99.90;;;;;;5072526;28;20040;-72
2022/09/30 00:39:02;;;;;;;10.98;2.78;;;9.20;99.90;;;;;;5072361;28;20395;-72
2022/09/30 00:41:27;;;;;;;5.57;3.20;;;8.90;99.90;;;;;;5070763;28;20041;-72
2022/09/30 00:43:53;;;;;;;4.30;2.85;;;9.70;99.90;;;;;;5071693;28;20055;-70
2022/09/30 00:46:28;;;;;;;4.20;2.67;;;8.90;99.90;;;;;;5070716;28;20037;-71
2022/09/30 00:48:56;;;;;;;3.40;2.67;;;8.90;99.90;;;;;;5070856;28;20513;-72
2022/09/30 00:51:36;;;;;;;3.40;2.60;;;8.90;99.90;;;;;;5070580;28;20097;-72
2022/09/30 00:54:08;;;;;;;3.65;3.25;;;9.00;99.90;;;;;;5071971;28;20051;-71
2022/09/30 00:56:38;;;;;;;2.63;2.22;;;8.70;99.90;;;;;;5054289;28;20075;-72
2022/09/30 00:59:15;;;;;;;2.72;2.35;;;8.70;99.90;;;;;;5070435;28;20047;-72
2022/09/30 01:01:41;;;;;;;4.43;3.00;;;8.80;99.90;;;;;;5071830;28;20490;-72
2022/09/30 01:04:13;;;;;;;5.15;2.97;;;8.80;99.90;;;;;;5071389;28;20041;-72
2022/09/30 01:06:40;;;;;;;5.55;2.67;;;8.70;99.90;;;;;;5053881;28;20040;-72
2022/09/30 01:09:06;;;;;;;2.65;2.33;;;8.60;99.90;;;;;;5070354;28;20040;-72
2022/09/30 01:11:32;;;;;;;5.35;3.05;;;8.60;99.90;;;;;;5070189;28;20059;-72
2022/09/30 01:14:04;;;;;;;5.25;2.50;;;8.60;99.90;;;;;;5070172;28;20066;-71
2022/09/30 01:16:42;;;;;;;2.85;2.22;;;8.60;99.90;;;;;;5071875;28;20040;-71
2022/09/30 01:19:18;;;;;;;3.03;2.10;;;8.50;99.90;;;;;;5069748;28;20043;-72
2022/09/30 01:22:15;;;;;;;2.85;2.45;;;8.60;99.90;;;;;;5070588;28;20132;-72
2022/09/30 01:25:05;;;;;;;2.33;2.13;;;8.40;99.90;;;;;;5071449;28;20430;-72
2022/09/30 01:28:01;;;;;;;2.55;2.25;;;8.60;99.90;;;;;;5070354;28;20036;-72
2022/09/30 01:30:53;;;;;;;5.20;2.55;;;8.40;99.90;;;;;;5070160;28;20045;-72
2022/09/30 01:34:13;;;;;;;2.28;2.08;;;8.50;99.90;;;;;;5070242;28;20494;-72
2022/09/30 01:36:59;;;;;;;2.20;2.00;;;8.40;99.90;;;;;;5009315;28;20074;-72
2022/09/30 01:43:13;;;;;;;3.42;2.50;;;8.20;99.90;;;;;;5056407;22;20042;-71
2022/09/30 01:45:55;;;;;;;6.15;2.38;;;8.30;99.90;;;;;;5013519;28;20123;-71
2022/09/30 01:48:42;;;;;;;2.78;1.90;;;8.30;99.90;;;;;;5032233;28;20049;-71
2022/09/30 01:51:15;;;;;;;2.35;2.15;;;8.30;99.90;;;;;;5013974;28;20507;-71
2022/09/30 01:54:13;;;;;;;3.75;2.10;;;8.20;99.90;;;;;;5031282;28;20502;-71
2022/09/30 01:56:51;;;;;;;4.20;2.28;;;8.30;99.90;;;;;;5030839;28;20037;-71
2022/09/30 01:59:24;;;;;;;4.05;2.30;;;;;;;;;;5014005;28;20077;-71
2022/09/30 02:02:17;;;;;;;2.20;1.83;;;8.10;99.90;;;;;;5013753;28;20048;-71
2022/09/30 02:05:06;;;;;;;2.10;1.90;;;8.00;99.90;;;;;;5015097;28;20057;-71
2022/09/30 02:07:44;;;;;;;2.35;2.08;;;8.00;99.90;;;;;;5035122;28;20549;-71
2022/09/30 02:10:27;;;;;;;4.53;2.20;;;8.10;99.90;;;;;;5017788;28;20041;-71
2022/09/30 02:13:15;;;;;;;3.97;2.08;;;8.00;99.90;;;;;;5035516;28;20041;-71
2022/09/30 02:15:48;;;;;;;2.83;2.38;;;8.00;99.90;;;;;;5035214;28;20056;-71
2022/09/30 02:18:20;;;;;;;9.98;2.50;;;7.90;99.90;;;;;;5017531;28;20045;-71
2022/09/30 02:20:50;;;;;;;6.43;2.28;;;7.90;99.90;;;;;;5017885;28;20064;-71
2022/09/30 02:23:25;;;;;;;3.15;2.17;;;8.00;99.90;;;;;;5035464;28;20068;-71
2022/09/30 02:25:58;;;;;;;3.85;2.35;;;7.80;99.90;;;;;;5035120;28;20076;-71
2022/09/30 02:28:27;;;;;;;2.30;2.10;;;7.60;99.90;;;;;;5017618;28;20045;-71
2022/09/30 02:30:58;;;;;;;2.72;2.28;;;7.80;99.90;;;;;;5017710;28;20064;-71
2022/09/30 02:33:34;;;;;;;2.58;2.00;;;7.90;99.90;;;;;;5017367;28;20045;-71
2022/09/30 02:36:12;;;;;;;2.83;2.33;;;7.90;99.90;;;;;;5017379;28;20048;-71
2022/09/30 02:38:45;;;;;;;4.97;2.45;;;7.70;99.90;;;;;;5000912;28;20042;-71
2022/09/30 02:41:16;;;;;;;2.40;1.80;;;7.70;99.90;;;;;;5016950;28;20038;-71
2022/09/30 02:43:41;;;;;;;2.92;2.20;;;7.80;99.90;;;;;;5035095;28;20041;-71
2022/09/30 02:46:13;;;;;;;2.33;2.05;;;7.70;99.90;;;;;;5017120;28;20510;-71
2022/09/30 02:49:17;;;;;;;3.10;2.40;;;7.60;99.90;;;;;;5035054;28;20131;-71
2022/09/30 02:52:06;;;;;;;5.32;3.00;;;7.60;99.90;;;;;;5034609;28;20521;-71
2022/09/30 02:54:47;;;;;;;4.55;3.33;;;7.60;99.90;;;;;;5025110;28;20087;-71
2022/09/30 02:57:32;;;;;;;3.28;2.60;;;7.60;99.90;;;;;;5016908;28;20037;-71
2022/09/30 02:59:58;;;;;;;2.25;2.05;;;;;;;;;;5034443;28;20080;-71
2022/09/30 03:02:24;;;;;;;4.95;3.33;;;;;;;;;;5016724;28;20459;-71
2022/09/30 03:04:50;;;;;;;2.88;2.58;;;;;;;;;;5016500;28;20040;-71
2022/09/30 03:07:16;;;;;;;2.95;2.33;;;7.30;99.90;;;;;;5035103;28;20535;-71
2022/09/30 03:09:42;;;;;;;4.20;2.50;;;;;;;;;;5035052;28;20041;-71
2022/09/30 03:12:18;;;;;;;2.40;2.20;;;;;;;;;;5017450;28;20418;-71
2022/09/30 03:15:09;;;;;;;3.17;1.85;;;7.40;99.90;;;;;;5016027;28;20052;-71
2022/09/30 03:17:43;;;;;;;2.55;2.28;;;7.40;99.90;;;;;;5016956;28;20050;-71
2022/09/30 03:20:17;;;;;;;2.95;2.22;;;7.50;99.90;;;;;;5016521;28;20049;-71
2022/09/30 03:23:09;;;;;;;3.03;2.60;;;7.30;99.90;;;;;;5016231;28;20037;-71
2022/09/30 03:25:41;;;;;;;3.25;2.75;;;7.50;99.90;;;;;;5033214;28;20044;-71
2022/09/30 03:28:24;;;;;;;2.40;2.20;;;7.50;99.90;;;;;;5034101;28;20044;-71
2022/09/30 03:31:04;;;;;;;3.23;2.53;;;7.40;99.90;;;;;;5016399;28;20037;-71
2022/09/30 03:33:30;;;;;;;3.08;2.45;;;;;;;;;;5034247;28;20043;-71
2022/09/30 03:35:56;;;;;;;2.35;2.13;;;;;;;;;;5033831;28;20438;-71
2022/09/30 03:38:48;;;;;;;3.28;2.55;;;7.30;99.90;;;;;;5015891;28;20049;-71
2022/09/30 03:41:25;;;;;;;2.90;2.30;;;7.40;99.90;;;;;;5015985;28;20041;-71
2022/09/30 03:44:13;;;;;;;2.67;2.30;;;7.40;99.90;;;;;;5033416;28;20111;-70
2022/09/30 03:46:50;;;;;;;3.17;2.60;;;7.40;99.90;;;;;;5006757;28;20045;-71
2022/09/30 03:49:20;;;;;;;8.98;3.65;;;;;;;;;;5016012;28;20041;-71
2022/09/30 03:51:45;;;;;;;3.60;2.83;;;7.40;99.90;;;;;;5015724;28;20049;-71
2022/09/30 03:54:13;;;;;;;3.60;3.05;;;7.50;99.90;;;;;;4999251;28;20518;-71
2022/09/30 03:56:42;;;;;;;5.07;2.67;;;7.30;99.90;;;;;;5033402;28;20049;-71
2022/09/30 03:59:18;;;;;;;3.63;2.63;;;7.30;99.90;;;;;;5033570;28;20045;-71
2022/09/30 04:01:43;;;;;;;3.50;2.50;;;7.30;99.90;;;;;;5033472;28;20041;-71
2022/09/30 04:04:09;;;;;;;3.15;2.78;;;7.30;99.90;;;;;;5032997;28;20083;-70
2022/09/30 04:06:35;;;;;;;4.38;3.08;;;7.20;99.90;;;;;;5033349;28;20072;-71
2022/09/30 04:09:00;;;;;;;3.25;2.83;;;7.40;99.90;;;;;;5033481;28;20037;-71
2022/09/30 04:11:26;;;;;;;4.32;3.30;;;7.30;99.90;;;;;;5033203;28;20037;-71
2022/09/30 04:13:52;;;;;;;3.50;3.20;;;;;;;;;;5015529;28;20502;-71
2022/09/30 04:16:18;;;;;;;3.30;2.60;;;;;;;;;;5015613;28;20041;-71
2022/09/30 04:18:44;;;;;;;4.93;3.40;;;;;;;;;;5015158;28;20518;-71
2022/09/30 04:21:12;;;;;;;3.83;3.22;;;7.10;99.90;;;;;;5015322;28;20041;-71
2022/09/30 04:23:39;;;;;;;4.47;3.30;;;7.20;99.90;;;;;;5032993;28;20072;-71
2022/09/30 04:26:06;;;;;;;4.03;3.50;;;;;;;;;;5014753;28;20045;-71
2022/09/30 04:28:34;;;;;;;3.92;3.30;;;7.20;99.90;;;;;;5014983;28;20127;-71
2022/09/30 04:31:05;;;;;;;3.13;2.83;;;7.20;99.90;;;;;;5015349;28;20033;-71
2022/09/30 04:33:31;;;;;;;3.83;3.28;;;7.20;99.90;;;;;;5015153;28;20049;-71
2022/09/30 04:35:58;;;;;;;4.82;3.22;;;7.20;99.90;;;;;;5014768;28;20095;-71
2022/09/30 04:38:25;;;;;;;5.07;3.45;;;7.20;99.90;;;;;;5034502;28;20049;-71
2022/09/30 04:40:51;;;;;;;6.88;3.10;;;7.30;99.90;;;;;;5034769;28;20773;-71
2022/09/30 04:43:18;;;;;;;4.13;3.22;;;7.20;99.90;;;;;;5052482;28;20045;-71
2022/09/30 04:45:46;;;;;;;3.22;2.90;;;7.30;99.90;;;;;;5017858;28;20052;-71
2022/09/30 04:48:13;;;;;;;5.10;3.75;;;7.10;99.90;;;;;;5032290;28;20084;-71
2022/09/30 04:50:38;;;;;;;4.28;3.35;;;7.10;99.90;;;;;;5031005;28;20033;-71
2022/09/30 04:53:04;;;;;;;4.53;3.47;;;7.10;99.90;;;;;;5031138;28;20110;-71
2022/09/30 04:55:30;;;;;;;4.07;3.53;;;7.00;99.90;;;;;;5032298;28;20111;-71
2022/09/30 04:57:56;;;;;;;5.40;3.40;;;;;;;;;;5032461;28;20116;-71
2022/09/30 05:00:23;;;;;;;4.78;4.18;;;7.10;99.90;;;;;;5032134;28;20217;-71
2022/09/30 05:02:49;;;;;;;4.65;4.15;;;6.90;99.90;;;;;;5014465;28;20033;-71
2022/09/30 05:05:15;;;;;;;5.32;3.90;;;6.90;99.90;;;;;;5032021;28;20036;-71
2022/09/30 05:07:40;;;;;;;4.55;3.22;;;7.00;99.90;;;;;;5032127;28;20086;-71
2022/09/30 05:10:07;;;;;;;5.18;3.85;;;6.90;99.90;;;;;;5032340;28;20080;-71
2022/09/30 05:12:33;;;;;;;3.85;3.08;;;;;;;;;;5014453;28;20517;-71
2022/09/30 05:14:59;;;;;;;5.18;3.90;;;7.10;99.90;;;;;;5014229;28;20128;-70
2022/09/30 05:17:25;;;;;;;4.28;3.50;;;;;;;;;;4997919;28;20171;-70
2022/09/30 05:19:51;;;;;;;4.60;3.50;;;;;;;;;;5014356;28;20132;-70
2022/09/30 05:22:17;;;;;;;4.32;3.92;;;;;;;;;;5014212;28;20128;-70
2022/09/30 05:24:43;;;;;;;6.93;4.38;;;;;;;;;;5013852;28;20041;-70
2022/09/30 05:27:09;;;;;;;4.57;3.83;;;6.90;99.90;;;;;;5032102;28;20118;-70
2022/09/30 05:29:34;;;;;;;4.45;3.88;;;6.90;99.90;;;;;;5014214;28;20511;-71
2022/09/30 05:32:00;;;;;;;4.90;3.85;;;7.00;99.90;;;;;;5014075;28;20176;-71
2022/09/30 05:34:26;;;;;;;4.88;3.88;;;;;;;;;;5013671;28;20095;-71
2022/09/30 05:36:52;;;;;;;4.38;3.90;;;;;;;;;;5031158;28;20042;-71
2022/09/30 05:39:18;;;;;;;3.92;3.60;;;;;;;;;;5014246;28;20549;-71
2022/09/30 05:41:44;;;;;;;5.97;3.88;;;;;;;;;;5030788;28;20129;-71
2022/09/30 05:44:10;;;;;;;5.03;4.15;;;;;;;;;;5013772;28;20041;-71
2022/09/30 05:46:35;;;;;;;4.05;3.40;;;7.20;99.90;;;;;;5031290;28;20049;-70
2022/09/30 05:49:06;;;;;;;7.28;4.03;;;7.20;99.90;;;;;;5014322;28;20053;-70
2022/09/30 05:51:32;;;;;;;5.90;4.03;;;7.10;99.90;;;;;;5036509;28;20475;-70
2022/09/30 05:53:57;;;;;;;5.47;4.00;;;7.10;99.90;;;;;;5012748;28;20120;-70
2022/09/30 05:56:23;;;;;;;5.72;3.75;;;;;;;;;;5031023;28;20499;-70
2022/09/30 05:58:49;;;;;;;4.10;3.70;;;7.20;99.90;;;;;;5031330;28;20103;-71
2022/09/30 06:01:15;;;;;;;6.30;4.95;;;7.10;99.90;;;;;;5013911;28;20087;-71
2022/09/30 06:03:43;;;;;;;8.00;4.63;;;7.30;99.90;;;;;;5010182;28;20075;-70
2022/09/30 06:06:09;;;;;;;5.30;4.25;;;;;;;;;;5010260;28;20048;-70
2022/09/30 06:08:35;;;;;;;5.50;4.50;;;;;;;;;;5003811;28;20068;-71
2022/09/30 06:11:10;;;;;;;4.95;4.05;;;7.30;99.90;;;;;;5027917;28;20123;-70
2022/09/30 06:13:36;;;;;;;5.78;4.22;;;7.30;99.90;;;;;;5008511;28;20056;-70
2022/09/30 06:16:03;;;;;;;7.13;4.18;;;;;;;;;;5010246;28;20491;-71
2022/09/30 06:18:30;;;;;;;7.75;3.97;;;7.20;99.90;;;;;;5009877;28;20054;-71
2022/09/30 06:20:57;;;;;;;5.38;3.95;;;7.30;99.90;;;;;;5027971;28;20046;-71
2022/09/30 06:23:23;;;;;;;7.00;4.85;;;;;;;;;;5013453;28;20064;-72
2022/09/30 06:25:50;;;;;;;8.63;4.53;;;;;;;;;;5024631;28;20044;-73
2022/09/30 06:28:16;;;;;;;5.53;4.57;;;;;;;;;;5026985;28;20412;-69
2022/09/30 06:30:43;;;;;;;6.65;5.22;;;7.50;99.90;;;;;;5009711;28;20045;-71
2022/09/30 06:33:09;;;;;;;8.82;5.00;;;7.50;99.90;;;;;;5010003;28;20044;-69
2022/09/30 06:35:35;;;;;;;7.25;5.45;;;;;;;;;;5027217;28;20037;-69
2022/09/30 06:38:01;;;;;;;7.88;5.72;;;;;;;;;;5027250;28;20083;-69
2022/09/30 06:40:27;;;;;;;9.57;5.70;;;7.80;99.90;;;;;;4993188;28;20038;-70
2022/09/30 06:42:58;;;;;;;10.75;5.68;;;7.80;99.90;;;;;;5027641;28;20036;-70
2022/09/30 06:45:25;;;;;;;8.32;5.50;;;;;;;;;;5009523;28;20095;-70
2022/09/30 06:47:51;;;;;;;8.38;6.10;;;;;;;;;;5012138;28;20044;-71
2022/09/30 06:50:17;;;;;;;12.02;7.07;;;;;;;;;;5021241;28;20041;-75
2022/09/30 06:52:44;;;;;;;9.32;6.60;;;8.10;99.90;;;;;;5031428;28;20033;-75
2022/09/30 06:55:10;;;;;;;13.77;9.35;;;;;;;;;;4996687;28;20103;-75
2022/09/30 06:57:36;;;;;;;10.68;7.80;;;;;;;;;;5033493;28;20487;-75
2022/09/30 07:00:02;;;;;;;12.85;8.27;;;8.40;99.90;;;;;;5015734;28;20042;-76
2022/09/30 07:02:28;;;;;;;11.50;7.43;;;8.40;99.90;;;;;;5016223;28;20040;-76
2022/09/30 07:04:54;;;;;;;10.02;7.60;;;8.60;99.90;;;;;;5016613;28;20033;-76
2022/09/30 07:07:20;;;;;;;15.23;9.05;;;;;;;;;;5032898;28;20037;-75
2022/09/30 07:09:46;;;;;;;12.15;7.97;;;8.70;99.90;;;;;;5015834;28;20045;-76
2022/09/30 07:12:12;;;;;;;13.15;8.25;;;8.80;99.90;;;;;;5032958;28;20053;-75
2022/09/30 07:14:37;;;;;;;14.30;7.65;;;8.80;99.90;;;;;;5014683;28;20064;-75
2022/09/30 07:17:05;;;;;;;13.13;8.25;;;9.00;99.90;;;;;;5033138;28;20075;-75
2022/09/30 07:19:33;;;;;;;16.38;8.80;;;9.00;99.90;;;;;;5032285;28;20120;-75
2022/09/30 07:22:26;;;;;;;14.57;8.88;;;9.10;99.90;;;;;;4999378;28;20491;-76
2022/09/30 07:24:44;;;;;;;10.60;7.93;;;;;;;;;;5014482;28;20042;-75
2022/09/30 07:27:13;;;;;;;15.15;10.32;;;9.50;99.90;;;;;;5000236;28;20042;-75
2022/09/30 07:29:43;;;;;;;16.90;9.23;;;9.30;99.90;;;;;;5016631;28;20037;-76
2022/09/30 07:32:09;;;;;;;14.32;9.90;;;;;;;;;;5015635;28;20045;-76
2022/09/30 07:34:36;;;;;;;16.67;11.57;;;9.70;99.90;;;;;;4999774;28;20084;-74
2022/09/30 07:37:03;;;;;;;13.23;9.13;;;9.70;99.90;;;;;;5016107;28;20071;-74
2022/09/30 07:39:30;;;;;;;19.40;10.32;;;;;;;;;;5000504;28;20235;-78
2022/09/30 07:41:55;;;;;;;20.95;9.63;;;9.80;99.90;;;;;;5039835;28;20037;-75
2022/09/30 07:44:25;;;;;;;55.58;12.93;;;;;;;;;;5016147;28;20049;-75
2022/09/30 07:46:50;;;;;;;31.20;9.88;;;9.60;99.90;;;;;;5015285;28;20045;-75
2022/09/30 07:49:23;;;;;;;24.75;9.65;;;9.90;99.90;;;;;;5032291;28;20066;-75
2022/09/30 07:51:49;;;;;;;31.77;10.13;;;10.00;99.90;;;;;;5014759;28;20112;-75
2022/09/30 07:54:17;;;;;;;22.00;9.45;;;9.90;99.90;;;;;;5015135;28;20319;-75
2022/09/30 07:56:44;;;;;;;95.70;14.25;;;9.90;99.90;;;;;;5032005;28;20053;-75
2022/09/30 07:59:11;;;;;;;64.40;10.95;;;10.20;99.90;;;;;;5032508;28;20042;-75
2022/09/30 08:01:37;;;;;;;48.13;12.40;;;10.10;99.90;;;;;;5014664;28;20037;-75
2022/09/30 08:04:06;;;;;;;67.38;12.60;;;10.10;99.90;;;;;;5030570;28;20519;-75
2022/09/30 08:06:37;;;;;;;64.78;14.63;;;10.30;99.90;;;;;;5032286;28;20455;-75
2022/09/30 08:09:03;;;;;;;38.50;10.48;;;10.40;99.90;;;;;;4989352;28;20542;-75
2022/09/30 08:11:32;;;;;;;28.52;10.57;;;10.50;99.90;;;;;;5032717;28;20178;-75
2022/09/30 08:13:58;;;;;;;26.73;9.38;;;;;;;;;;5013672;28;20040;-75
2022/09/30 08:16:25;;;;;;;53.85;13.00;;;10.50;99.90;;;;;;5014659;28;20046;-75
2022/09/30 08:18:59;;;;;;;17.75;8.52;;;10.60;99.90;;;;;;5015001;28;20088;-74
2022/09/30 08:21:26;;;;;;;18.60;8.23;;;10.70;99.90;;;;;;5030650;28;20492;-75
2022/09/30 08:23:52;;;;;;;82.65;13.13;;;;;;;;;;5031456;28;20033;-76
2022/09/30 08:26:18;;;;;;;32.35;9.88;;;10.60;99.90;;;;;;5013995;28;20037;-75
2022/09/30 08:28:48;;;;;;;17.25;8.27;;;10.70;99.90;;;;;;5032319;28;20037;-72
2022/09/30 08:31:19;;;;;;;15.35;8.43;;;10.90;99.90;;;;;;5014971;28;20059;-73
2022/09/30 08:33:45;;;;;;;21.17;8.75;;;;;;;;;;5031788;28;20049;-77
2022/09/30 08:36:13;;;;;;;10.70;7.65;;;10.90;99.90;;;;;;5014663;28;20037;-73
2022/09/30 08:38:39;;;;;;;14.68;9.23;;;11.00;99.90;;;;;;5000443;28;20041;-74
2022/09/30 08:41:26;;;;;;;25.17;9.55;;;11.20;99.90;;;;;;5013247;28;20032;-74
2022/09/30 08:44:13;;;;;;;25.15;10.77;;;11.20;99.90;;;;;;5034078;28;20668;-75
2022/09/30 08:46:39;;;;;;;16.60;11.48;;;;;;;;;;5011074;28;20029;-74
2022/09/30 08:49:05;;;;;;;12.02;8.95;;;;;;;;;;5031514;28;20041;-75
2022/09/30 08:51:46;;;;;;;12.95;10.15;;;11.50;99.90;;;;;;5013691;28;20403;-75
2022/09/30 08:54:21;;;;;;;13.80;9.15;;;11.40;99.90;;;;;;5032140;28;20052;-73
2022/09/30 08:56:47;;;;;;;12.82;9.15;;;11.40;99.90;;;;;;4998375;28;20092;-74
2022/09/30 08:59:37;;;;;;;9.00;8.10;;;11.50;99.90;;;;;;5031832;28;20077;-74
2022/09/30 09:02:21;;;;;;;11.68;9.05;;;11.70;99.90;;;;;;5031145;28;20495;-74
2022/09/30 09:04:48;;;;;;;9.02;8.07;;;11.50;99.90;;;;;;5012774;28;20411;-74
2022/09/30 09:07:29;;;;;;;10.77;8.15;;;;;;;;;;5027785;28;20384;-75
2022/09/30 09:10:00;;;;;;;8.88;7.97;;;11.80;99.90;;;;;;5010387;28;20037;-74
2022/09/30 09:12:43;;;;;;;9.90;8.63;;;11.90;99.90;;;;;;5011857;28;20049;-74
2022/09/30 09:15:26;;;;;;;11.23;9.50;;;12.00;99.90;;;;;;5008160;28;20084;-74
2022/09/30 09:18:27;;;;;;;10.10;9.10;;;12.00;99.90;;;;;;5028875;28;20041;-74
2022/09/30 09:20:57;;;;;;;12.35;9.98;;;12.20;99.90;;;;;;5012921;28;20037;-74
2022/09/30 09:23:23;;;;;;;11.32;9.90;;;12.10;99.90;;;;;;5012681;28;20044;-73
2022/09/30 09:25:51;;;;;;;12.38;10.93;;;12.20;99.90;;;;;;5010813;28;20069;-75
2022/09/30 09:28:36;;;;;;;13.45;10.90;;;12.40;99.90;;;;;;5014408;28;20037;-76
2022/09/30 09:31:03;;;;;;;17.02;13.27;;;12.50;99.90;;;;;;5021842;28;20041;-74
2022/09/30 09:33:34;;;;;;;16.42;13.10;;;12.40;99.90;;;;;;5013913;28;20083;-74
2022/09/30 09:36:07;;;;;;;16.35;13.52;;;13.70;99.90;;;;;;4997123;28;20450;-74
2022/09/30 09:39:17;;;;;;;20.25;13.93;;;12.70;99.90;;;;;;5013483;28;20509;-74
2022/09/30 09:42:05;;;;;;;14.63;12.25;;;13.00;99.90;;;;;;5030159;28;20025;-74
2022/09/30 09:45:01;;;;;;;16.73;12.32;;;13.10;99.90;;;;;;5026809;28;20484;-74
2022/09/30 09:47:27;;;;;;;15.60;13.02;;;13.30;99.90;;;;;;5021302;28;20068;-75
2022/09/30 09:49:55;;;;;;;13.55;11.00;;;;;;;;;;5011617;28;20542;-75
2022/09/30 09:52:29;;;;;;;11.93;9.85;;;13.60;99.90;;;;;;5013442;28;20053;-76
2022/09/30 09:54:55;;;;;;;12.35;9.65;;;;;;;;;;5006531;28;20041;-75
2022/09/30 09:57:30;;;;;;;22.15;9.20;;;13.90;99.90;;;;;;4996033;28;20076;-76
2022/09/30 10:03:17;;;;;;;6.75;5.97;;;13.90;99.90;;;;;;5030186;28;20045;-74
2022/09/30 10:05:46;;;;;;;8.95;6.00;;;14.00;99.90;;;;;;5028475;28;20040;-74
2022/09/30 10:08:20;;;;;;;6.38;5.35;;;14.20;99.90;;;;;;5012185;28;20496;-75
2022/09/30 10:10:50;;;;;;;7.13;4.63;;;14.00;99.90;;;;;;4996010;28;20377;-75
2022/09/30 10:13:45;;;;;;;5.60;4.28;;;14.20;99.90;;;;;;5007413;28;20046;-74
2022/09/30 10:16:36;;;;;;;6.35;3.58;;;14.10;99.90;;;;;;5011902;28;20472;-74
2022/09/30 10:19:20;;;;;;;5.40;3.58;;;14.20;99.90;;;;;;4996077;28;20111;-74
2022/09/30 10:21:45;;;;;;;;;;;14.30;99.90;;;;;;5023375;28;20033;-75
2022/09/30 10:24:29;;;;;;;4.53;3.08;;;14.40;99.90;;;;;;5013786;28;19923;-75
2022/09/30 10:26:55;;;;;;;3.22;2.80;;;14.40;99.90;;;;;;5020557;28;20044;-74
2022/09/30 10:29:32;;;;;;;4.75;3.10;;;14.80;99.90;;;;;;5016903;28;20037;-74
2022/09/30 10:32:06;;;;;;;5.10;2.60;;;14.70;99.90;;;;;;5019759;28;20462;-75
2022/09/30 10:34:34;;;;;;;3.58;2.80;;;14.80;99.90;;;;;;5017159;28;20041;-75
2022/09/30 10:37:06;;;;;;;5.18;2.90;;;14.80;99.90;;;;;;5031189;28;20509;-74
2022/09/30 10:39:35;;;;;;;4.53;2.80;;;14.80;99.90;;;;;;4996682;28;20042;-75
2022/09/30 10:42:21;;;;;;;4.72;3.08;;;15.00;99.90;;;;;;5012688;28;20034;-74
2022/09/30 10:45:01;;;;;;;4.47;3.25;;;15.00;99.90;;;;;;4997043;28;20048;-75
2022/09/30 10:47:28;;;;;;;7.00;4.43;;;15.10;99.90;;;;;;5024677;28;20063;-73
2022/09/30 10:50:10;;;;;;;6.95;4.20;;;15.20;99.90;;;;;;5053748;28;20033;-72
2022/09/30 10:53:03;;;;;;;5.57;3.42;;;15.10;99.90;;;;;;5040535;28;20489;-73
2022/09/30 10:55:42;;;;;;;4.63;3.27;;;14.80;99.90;;;;;;5014657;28;20426;-73
2022/09/30 10:58:20;;;;;;;4.50;3.90;;;15.10;99.90;;;;;;5016940;28;20281;-72
2022/09/30 11:00:50;;;;;;;4.90;3.58;;;15.40;99.90;;;;;;5016756;28;20124;-73
2022/09/30 11:03:22;;;;;;;5.43;3.15;;;15.50;99.90;;;;;;5016588;28;20056;-72
2022/09/30 11:05:49;;;;;;;4.18;2.90;;;15.50;99.90;;;;;;5016462;28;20049;-72
2022/09/30 11:08:25;;;;;;;3.42;2.60;;;15.50;99.90;;;;;;5034646;28;20037;-73
2022/09/30 11:11:08;;;;;;;2.75;2.30;;;15.50;99.90;;;;;;5015515;28;20037;-73
2022/09/30 11:13:42;;;;;;;2.63;2.22;;;15.90;99.90;;;;;;5016604;28;20052;-72
2022/09/30 11:16:09;;;;;;;3.85;2.70;;;;;;;;;;5012549;28;20033;-73
2022/09/30 11:19:10;;;;;;;5.18;2.47;;;16.20;99.90;;;;;;5015977;28;20044;-73
2022/09/30 11:21:51;;;;;;;4.43;2.00;;;16.10;99.90;;;;;;5016399;28;20056;-73
2022/09/30 11:24:17;;;;;;;2.63;1.98;;;15.70;99.90;;;;;;5015341;28;20048;-73
2022/09/30 11:27:01;;;;;;;3.42;2.10;;;15.50;99.90;;;;;;5015613;28;20043;-73
2022/09/30 11:29:42;;;;;;;7.20;2.95;;;15.60;99.90;;;;;;5034017;28;20507;-73
2022/09/30 11:32:53;;;;;;;5.68;2.80;;;15.70;99.90;;;;;;5041011;28;20045;-73
2022/09/30 11:35:46;;;;;;;3.30;2.58;;;15.70;99.90;;;;;;5015079;28;20037;-73
2022/09/30 11:38:40;;;;;;;2.93;2.10;;;15.50;99.90;;;;;;5016428;28;20049;-73
2022/09/30 11:41:27;;;;;;;2.70;2.08;;;15.50;99.90;;;;;;5015738;28;20538;-73
2022/09/30 11:44:22;;;;;;;3.60;1.65;;;15.70;99.90;;;;;;5015999;28;20036;-72
2022/09/30 11:47:03;;;;;;;2.05;1.77;;;15.50;99.90;;;;;;5033857;28;20038;-72
2022/09/30 11:49:52;;;;;;;1.70;1.58;;;15.30;99.90;;;;;;5016066;28;20488;-73
2022/09/30 11:52:17;;;;;;;2.80;1.60;;;;;;;;;;5016673;28;20046;-72
2022/09/30 11:54:49;;;;;;;2.60;1.50;;;16.00;99.90;;;;;;5013591;28;20415;-73
2022/09/30 11:57:22;;;;;;;4.80;1.52;;;16.00;99.90;;;;;;5015581;28;20099;-72
2022/09/30 12:00:08;;;;;;;2.72;1.48;;;16.30;99.90;;;;;;5015765;28;20045;-72
2022/09/30 12:02:39;;;;;;;1.92;1.70;;;15.80;99.90;;;;;;5015642;28;20037;-73
2022/09/30 12:05:25;;;;;;;1.90;1.58;;;15.90;99.90;;;;;;5033259;28;20040;-73
2022/09/30 12:08:05;;;;;;;2.45;1.80;;;15.80;99.90;;;;;;5033378;28;20538;-72
2022/09/30 12:10:36;;;;;;;2.80;2.17;;;15.90;99.90;;;;;;5015327;28;20041;-73
2022/09/30 12:13:12;;;;;;;1.77;1.63;;;15.90;99.90;;;;;;5015797;28;20140;-72
2022/09/30 12:15:41;;;;;;;3.28;2.58;;;16.30;99.90;;;;;;5032417;28;20041;-73
2022/09/30 12:18:26;;;;;;;2.40;1.42;;;16.40;99.90;;;;;;5015633;28;20038;-73
2022/09/30 12:21:11;;;;;;;2.97;1.90;;;16.00;99.90;;;;;;5015194;28;20048;-72
2022/09/30 12:23:48;;;;;;;2.60;1.80;;;15.90;99.90;;;;;;5033157;28;20044;-73
2022/09/30 12:26:15;;;;;;;1.50;1.40;;;16.00;99.90;;;;;;5006289;28;20136;-72
2022/09/30 12:32:08;;;;;;;1.48;1.38;;;15.90;99.90;;;;;;5022381;28;20033;-73
2022/09/30 12:34:48;;;;;;;2.58;1.52;;;15.90;99.90;;;;;;5030163;28;20041;-73
2022/09/30 12:37:43;;;;;;;3.30;2.20;;;16.00;99.90;;;;;;5013074;28;20042;-73
2022/09/30 12:40:30;;;;;;;3.10;1.80;;;15.80;99.90;;;;;;5012577;28;20042;-73
2022/09/30 12:43:02;;;;;;;2.55;1.95;;;15.90;99.90;;;;;;5013955;28;20148;-73
2022/09/30 12:45:53;;;;;;;4.03;2.47;;;15.80;99.90;;;;;;4995048;28;20557;-73
2022/09/30 12:48:21;;;;;;;2.05;1.70;;;16.00;99.90;;;;;;5013173;28;20042;-72
2022/09/30 12:50:51;;;;;;;3.40;1.85;;;16.00;99.90;;;;;;5013488;28;20046;-72
2022/09/30 12:53:23;;;;;;;2.08;1.70;;;15.90;99.90;;;;;;4996911;28;20038;-73
2022/09/30 12:55:50;;;;;;;2.53;2.00;;;15.90;99.90;;;;;;4983754;28;20492;-73
2022/09/30 12:58:29;;;;;;;4.15;1.92;;;15.80;99.90;;;;;;4999120;28;20462;-73
2022/09/30 13:01:20;;;;;;;4.20;2.17;;;15.80;99.90;;;;;;4999326;28;20074;-73
2022/09/30 13:04:15;;;;;;;2.80;1.88;;;15.80;99.90;;;;;;5015004;28;20041;-72
2022/09/30 13:06:44;;;;;;;2.47;2.00;;;16.10;99.90;;;;;;5014109;28;20480;-72
2022/09/30 13:09:15;;;;;;;2.78;1.27;;;16.10;99.90;;;;;;4996037;28;20104;-73
2022/09/30 13:11:43;;;;;;;2.70;1.80;;;16.00;99.90;;;;;;5012999;28;20042;-73
2022/09/30 13:14:17;;;;;;;3.47;1.63;;;15.90;99.90;;;;;;4994737;28;20041;-73
2022/09/30 13:17:01;;;;;;;3.10;1.60;;;16.10;99.90;;;;;;5012706;28;20044;-73
2022/09/30 13:19:36;;;;;;;3.22;1.90;;;16.10;99.90;;;;;;5012683;28;20046;-73
2022/09/30 13:22:20;;;;;;;2.42;1.80;;;16.10;99.90;;;;;;4994611;28;20041;-73
2022/09/30 13:25:03;;;;;;;2.95;2.03;;;15.90;99.90;;;;;;4978530;28;20084;-73
2022/09/30 13:27:39;;;;;;;5.97;2.90;;;15.90;99.90;;;;;;4994574;28;20033;-73
2022/09/30 13:30:17;;;;;;;3.28;2.00;;;16.00;99.90;;;;;;4994945;28;20077;-73
2022/09/30 13:33:03;;;;;;;2.92;2.17;;;16.10;99.90;;;;;;5036691;28;20133;-74
2022/09/30 13:35:38;;;;;;;2.97;2.20;;;16.50;99.90;;;;;;5033605;28;20045;-73
2022/09/30 13:38:13;;;;;;;2.97;1.80;;;16.30;99.90;;;;;;5026958;28;20088;-72
2022/09/30 13:40:50;;;;;;;7.28;2.92;;;16.30;99.90;;;;;;5012165;28;20116;-73
2022/09/30 13:43:24;;;;;;;3.65;2.70;;;16.10;99.90;;;;;;5013774;28;20037;-73
2022/09/30 13:45:52;;;;;;;4.35;2.50;;;16.10;99.90;;;;;;5032601;28;20041;-73
2022/09/30 13:48:24;;;;;;;3.88;2.65;;;16.10;99.90;;;;;;5011799;28;20038;-73